RA601 URML-URWA
Flight info
| Callsign | RA601 |
|---|---|
| Flight time | 1h 43m |
| Altitude | 2000 |
| Route | AMKOL1N AMKOL B945 UP UP5K |
| Aircraft | DA62/L-SDFGRY/C |
Departure
| Time | 2026-04-29 09:18 |
|---|---|
| Airport | Makhachkala Uytash International Airport (URML) |
Arrival
| Time | 2026-04-29 11:01 |
|---|---|
| Airport | Astrakhan Narimanovo Boris M. Kustodiev International Airport (URWA) |
| Time | Latitude | Longitude | Altitude | Speed | Heading |
|---|---|---|---|---|---|
| 2026-04-29 08:55 | 42.81849 | 47.65738 | 16 ft | 0 kts | 38° |
| 2026-04-29 09:13 | 42.81850 | 47.65739 | 16 ft | 2 kts | 35° |
| 2026-04-29 09:14 | 42.81864 | 47.65732 | 16 ft | 0 kts | 307° |
| 2026-04-29 09:14 | 42.81861 | 47.65739 | 16 ft | 2 kts | 280° |
| 2026-04-29 09:15 | 42.81862 | 47.65745 | 16 ft | 1 kts | 217° |
| 2026-04-29 09:15 | 42.81824 | 47.65714 | 16 ft | 10 kts | 211° |
| 2026-04-29 09:15 | 42.81769 | 47.65644 | 16 ft | 13 kts | 261° |
| 2026-04-29 09:15 | 42.81745 | 47.65516 | 16 ft | 15 kts | 231° |
| 2026-04-29 09:16 | 42.81690 | 47.65401 | 16 ft | 14 kts | 238° |
| 2026-04-29 09:16 | 42.81650 | 47.65287 | 15 ft | 13 kts | 280° |
| 2026-04-29 09:16 | 42.81841 | 47.65102 | 13 ft | 65 kts | 328° |
| 2026-04-29 09:16 | 42.82348 | 47.64673 | 18 ft | 105 kts | 328° |
| 2026-04-29 09:17 | 42.83009 | 47.64117 | 170 ft | 113 kts | 328° |
| 2026-04-29 09:17 | 42.83763 | 47.63719 | 297 ft | 126 kts | 2° |
| 2026-04-29 09:17 | 42.84654 | 47.63967 | 368 ft | 136 kts | 0° |
| 2026-04-29 09:17 | 42.85635 | 47.63848 | 445 ft | 149 kts | 353° |
| 2026-04-29 09:18 | 42.86693 | 47.63669 | 548 ft | 156 kts | 353° |
| 2026-04-29 09:18 | 42.87788 | 47.63474 | 652 ft | 160 kts | 352° |
| 2026-04-29 09:18 | 42.88900 | 47.63275 | 758 ft | 162 kts | 353° |
| 2026-04-29 09:18 | 42.90030 | 47.63071 | 884 ft | 163 kts | 353° |
| 2026-04-29 09:19 | 42.91142 | 47.62871 | 1094 ft | 159 kts | 353° |
| 2026-04-29 09:19 | 42.92237 | 47.62674 | 1311 ft | 157 kts | 354° |
| 2026-04-29 09:19 | 42.93268 | 47.62487 | 1514 ft | 136 kts | 353° |
| 2026-04-29 09:19 | 42.94123 | 47.62327 | 1705 ft | 115 kts | 355° |
| 2026-04-29 09:20 | 42.94848 | 47.62194 | 1895 ft | 95 kts | 357° |
| 2026-04-29 09:20 | 42.95460 | 47.62082 | 1988 ft | 86 kts | 357° |
| 2026-04-29 09:20 | 42.96052 | 47.61979 | 1986 ft | 88 kts | 355° |
| 2026-04-29 09:20 | 42.96664 | 47.61870 | 1984 ft | 89 kts | 356° |
| 2026-04-29 09:21 | 42.97279 | 47.61759 | 1991 ft | 90 kts | 355° |
| 2026-04-29 09:21 | 42.97909 | 47.61653 | 1995 ft | 92 kts | 356° |
| 2026-04-29 09:21 | 42.98554 | 47.61533 | 2000 ft | 95 kts | 356° |
| 2026-04-29 09:21 | 42.99148 | 47.61109 | 2005 ft | 102 kts | 322° |
| 2026-04-29 09:22 | 42.99633 | 47.60386 | 2002 ft | 107 kts | 298° |
| 2026-04-29 09:22 | 42.99817 | 47.59405 | 2004 ft | 109 kts | 274° |
| 2026-04-29 09:22 | 42.99897 | 47.58362 | 2002 ft | 112 kts | 276° |
| 2026-04-29 09:22 | 42.99979 | 47.57301 | 2003 ft | 115 kts | 276° |
| 2026-04-29 09:23 | 43.00048 | 47.56189 | 2001 ft | 119 kts | 266° |
| 2026-04-29 09:23 | 42.99904 | 47.55067 | 2001 ft | 121 kts | 260° |
| 2026-04-29 09:23 | 42.99748 | 47.53937 | 2001 ft | 121 kts | 259° |
| 2026-04-29 09:23 | 42.99594 | 47.52805 | 1998 ft | 121 kts | 259° |
| 2026-04-29 09:24 | 42.99444 | 47.51678 | 1997 ft | 119 kts | 259° |
| 2026-04-29 09:24 | 42.99296 | 47.50592 | 2000 ft | 117 kts | 259° |
| 2026-04-29 09:24 | 42.99147 | 47.49497 | 1993 ft | 116 kts | 259° |
| 2026-04-29 09:24 | 42.98999 | 47.48400 | 1993 ft | 119 kts | 259° |
| 2026-04-29 09:25 | 42.98849 | 47.47283 | 1991 ft | 119 kts | 259° |
| 2026-04-29 09:25 | 42.98702 | 47.46171 | 1986 ft | 121 kts | 259° |
| 2026-04-29 09:25 | 42.98548 | 47.45037 | 1995 ft | 122 kts | 259° |
| 2026-04-29 09:25 | 42.98391 | 47.43876 | 2000 ft | 125 kts | 259° |
| 2026-04-29 09:26 | 42.98233 | 47.42694 | 1992 ft | 126 kts | 259° |
| 2026-04-29 09:26 | 42.98085 | 47.41510 | 1988 ft | 126 kts | 267° |
| 2026-04-29 09:26 | 42.98429 | 47.40495 | 1984 ft | 121 kts | 323° |
| 2026-04-29 09:26 | 42.99170 | 47.40032 | 1981 ft | 117 kts | 349° |
| 2026-04-29 09:27 | 42.99956 | 47.39741 | 1986 ft | 116 kts | 346° |
| 2026-04-29 09:27 | 43.00725 | 47.39434 | 1987 ft | 115 kts | 347° |
| 2026-04-29 09:27 | 43.01499 | 47.39124 | 1988 ft | 116 kts | 347° |
| 2026-04-29 09:27 | 43.02280 | 47.38799 | 1987 ft | 118 kts | 347° |
| 2026-04-29 09:28 | 43.03055 | 47.38472 | 1981 ft | 115 kts | 345° |
| 2026-04-29 09:28 | 43.03818 | 47.38150 | 1975 ft | 113 kts | 347° |
| 2026-04-29 09:28 | 43.04563 | 47.37838 | 1986 ft | 113 kts | 345° |
| 2026-04-29 09:28 | 43.05315 | 47.37523 | 1983 ft | 112 kts | 346° |
| 2026-04-29 09:29 | 43.06068 | 47.37205 | 1991 ft | 121 kts | 345° |
| 2026-04-29 09:29 | 43.08023 | 47.36393 | 1999 ft | 166 kts | 344° |
| 2026-04-29 09:29 | 43.09149 | 47.35916 | 1998 ft | 176 kts | 346° |
| 2026-04-29 09:30 | 43.10345 | 47.35410 | 1993 ft | 182 kts | 346° |
| 2026-04-29 09:30 | 43.11568 | 47.34893 | 1993 ft | 185 kts | 346° |
| 2026-04-29 09:30 | 43.12803 | 47.34372 | 1994 ft | 186 kts | 345° |
| 2026-04-29 09:30 | 43.14063 | 47.34237 | 1981 ft | 182 kts | 14° |
| 2026-04-29 09:31 | 43.15269 | 47.34725 | 1982 ft | 179 kts | 19° |
| 2026-04-29 09:31 | 43.16461 | 47.35243 | 1984 ft | 179 kts | 19° |
| 2026-04-29 09:31 | 43.17666 | 47.35676 | 1981 ft | 179 kts | 16° |
| 2026-04-29 09:31 | 43.18862 | 47.36059 | 1979 ft | 178 kts | 17° |
| 2026-04-29 09:32 | 43.20035 | 47.36431 | 1986 ft | 169 kts | 15° |
| 2026-04-29 09:32 | 43.21165 | 47.36792 | 1984 ft | 164 kts | 16° |
| 2026-04-29 09:32 | 43.21902 | 47.37029 | 1985 ft | 163 kts | 16° |
| 2026-04-29 09:32 | 43.23009 | 47.37388 | 1978 ft | 162 kts | 15° |
| 2026-04-29 09:33 | 43.24093 | 47.37737 | 1983 ft | 159 kts | 17° |
| 2026-04-29 09:33 | 43.25517 | 47.38198 | 1979 ft | 158 kts | 16° |
| 2026-04-29 09:33 | 43.26230 | 47.38427 | 1986 ft | 158 kts | 15° |
| 2026-04-29 09:33 | 43.27302 | 47.38775 | 1979 ft | 158 kts | 16° |
| 2026-04-29 09:34 | 43.28369 | 47.39119 | 1975 ft | 157 kts | 15° |
| 2026-04-29 09:34 | 43.29436 | 47.39464 | 1985 ft | 158 kts | 16° |
| 2026-04-29 09:34 | 43.30488 | 47.39804 | 1984 ft | 159 kts | 16° |
| 2026-04-29 09:34 | 43.31562 | 47.40152 | 1981 ft | 158 kts | 16° |
| 2026-04-29 09:35 | 43.32619 | 47.40494 | 1985 ft | 158 kts | 16° |
| 2026-04-29 09:35 | 43.33691 | 47.40841 | 1990 ft | 158 kts | 16° |
| 2026-04-29 09:35 | 43.34765 | 47.41189 | 1985 ft | 159 kts | 17° |
| 2026-04-29 09:35 | 43.35844 | 47.41539 | 1985 ft | 159 kts | 17° |
| 2026-04-29 09:36 | 43.36922 | 47.41888 | 1986 ft | 159 kts | 17° |
| 2026-04-29 09:36 | 43.37998 | 47.42237 | 1985 ft | 160 kts | 16° |
| 2026-04-29 09:36 | 43.39072 | 47.42585 | 1986 ft | 159 kts | 18° |
| 2026-04-29 09:36 | 43.40143 | 47.42932 | 1989 ft | 158 kts | 17° |
| 2026-04-29 09:37 | 43.41222 | 47.43283 | 1986 ft | 159 kts | 18° |
| 2026-04-29 09:37 | 43.42305 | 47.43635 | 1986 ft | 160 kts | 17° |
| 2026-04-29 09:37 | 43.42657 | 47.43750 | 1983 ft | 160 kts | 17° |
| 2026-04-29 09:37 | 43.43573 | 47.44047 | 1984 ft | 161 kts | 16° |
| 2026-04-29 09:38 | 43.44657 | 47.44399 | 1982 ft | 160 kts | 18° |
| 2026-04-29 09:38 | 43.45742 | 47.44752 | 1987 ft | 161 kts | 17° |
| 2026-04-29 09:38 | 43.46835 | 47.45108 | 1984 ft | 161 kts | 17° |
| 2026-04-29 09:38 | 43.47349 | 47.45275 | 1988 ft | 160 kts | 17° |
| 2026-04-29 09:40 | 43.48776 | 47.45738 | 1987 ft | 158 kts | 17° |
| 2026-04-29 09:41 | 43.49842 | 47.46085 | 1983 ft | 157 kts | 16° |
| 2026-04-29 09:41 | 43.50898 | 47.46429 | 1988 ft | 155 kts | 17° |
| 2026-04-29 09:41 | 43.51951 | 47.46773 | 1988 ft | 156 kts | 16° |
| 2026-04-29 09:41 | 43.53006 | 47.47117 | 1990 ft | 156 kts | 16° |
| 2026-04-29 09:42 | 43.54049 | 47.47457 | 1978 ft | 155 kts | 16° |
| 2026-04-29 09:42 | 43.55094 | 47.47797 | 1976 ft | 154 kts | 17° |
| 2026-04-29 09:42 | 43.56134 | 47.48137 | 1980 ft | 153 kts | 16° |
| 2026-04-29 09:42 | 43.57176 | 47.48477 | 1982 ft | 154 kts | 16° |
| 2026-04-29 09:43 | 43.58228 | 47.48821 | 1987 ft | 155 kts | 16° |
| 2026-04-29 09:43 | 43.59282 | 47.49165 | 1986 ft | 155 kts | 17° |
| 2026-04-29 09:43 | 43.60335 | 47.49509 | 1985 ft | 156 kts | 16° |
| 2026-04-29 09:43 | 43.61390 | 47.49854 | 1988 ft | 156 kts | 15° |
| 2026-04-29 09:44 | 43.62485 | 47.49895 | 1980 ft | 160 kts | 355° |
| 2026-04-29 09:44 | 43.63587 | 47.49681 | 1980 ft | 159 kts | 357° |
| 2026-04-29 09:44 | 43.64674 | 47.49489 | 1979 ft | 160 kts | 356° |
| 2026-04-29 09:44 | 43.65785 | 47.49291 | 1979 ft | 161 kts | 356° |
| 2026-04-29 09:45 | 43.66895 | 47.49093 | 1977 ft | 160 kts | 355° |
| 2026-04-29 09:45 | 43.67997 | 47.48893 | 1977 ft | 159 kts | 357° |
| 2026-04-29 09:45 | 43.69095 | 47.48695 | 1982 ft | 159 kts | 358° |
| 2026-04-29 09:45 | 43.70194 | 47.48500 | 1980 ft | 160 kts | 357° |
| 2026-04-29 09:46 | 43.71301 | 47.48300 | 1981 ft | 160 kts | 357° |
| 2026-04-29 09:46 | 43.72409 | 47.48101 | 1981 ft | 160 kts | 356° |
| 2026-04-29 09:46 | 43.73505 | 47.47903 | 1981 ft | 161 kts | 356° |
| 2026-04-29 09:46 | 43.74621 | 47.47703 | 1978 ft | 161 kts | 356° |
| 2026-04-29 09:47 | 43.75730 | 47.47502 | 1981 ft | 160 kts | 357° |
| 2026-04-29 09:47 | 43.76836 | 47.47303 | 1982 ft | 160 kts | 356° |
| 2026-04-29 09:47 | 43.77944 | 47.47104 | 1983 ft | 160 kts | 356° |
| 2026-04-29 09:47 | 43.79032 | 47.46907 | 1984 ft | 159 kts | 356° |
| 2026-04-29 09:48 | 43.80139 | 47.46708 | 1983 ft | 160 kts | 356° |
| 2026-04-29 09:48 | 43.81250 | 47.46508 | 1984 ft | 161 kts | 357° |
| 2026-04-29 09:48 | 43.82363 | 47.46306 | 1982 ft | 161 kts | 356° |
| 2026-04-29 09:48 | 43.83461 | 47.46108 | 1981 ft | 161 kts | 356° |
| 2026-04-29 09:49 | 43.84572 | 47.45907 | 1985 ft | 160 kts | 357° |
| 2026-04-29 09:49 | 43.85683 | 47.45707 | 1982 ft | 161 kts | 356° |
| 2026-04-29 09:49 | 43.86802 | 47.45504 | 1976 ft | 162 kts | 358° |
| 2026-04-29 09:49 | 43.87923 | 47.45302 | 1973 ft | 162 kts | 357° |
| 2026-04-29 09:50 | 43.89028 | 47.45102 | 1973 ft | 162 kts | 358° |
| 2026-04-29 09:50 | 43.90144 | 47.44899 | 1974 ft | 162 kts | 357° |
| 2026-04-29 09:50 | 43.91265 | 47.44697 | 1975 ft | 161 kts | 356° |
| 2026-04-29 09:50 | 43.92383 | 47.44495 | 1974 ft | 162 kts | 356° |
| 2026-04-29 09:51 | 43.93486 | 47.44295 | 1977 ft | 161 kts | 356° |
| 2026-04-29 09:51 | 43.94597 | 47.44092 | 1979 ft | 161 kts | 357° |
| 2026-04-29 09:51 | 43.95716 | 47.43891 | 1979 ft | 162 kts | 357° |
| 2026-04-29 09:51 | 43.96838 | 47.43687 | 1979 ft | 162 kts | 357° |
| 2026-04-29 09:52 | 43.97958 | 47.43483 | 1976 ft | 162 kts | 357° |
| 2026-04-29 09:52 | 43.99080 | 47.43280 | 1975 ft | 162 kts | 356° |
| 2026-04-29 09:52 | 44.00195 | 47.43077 | 1975 ft | 161 kts | 357° |
| 2026-04-29 09:52 | 44.01295 | 47.42877 | 1975 ft | 161 kts | 356° |
| 2026-04-29 09:53 | 44.02411 | 47.42674 | 1981 ft | 161 kts | 356° |
| 2026-04-29 09:53 | 44.03523 | 47.42473 | 1981 ft | 161 kts | 356° |
| 2026-04-29 09:53 | 44.04616 | 47.42274 | 1981 ft | 160 kts | 356° |
| 2026-04-29 09:53 | 44.05725 | 47.42072 | 1981 ft | 160 kts | 356° |
| 2026-04-29 09:54 | 44.06830 | 47.41870 | 1978 ft | 160 kts | 357° |
| 2026-04-29 09:54 | 44.07564 | 47.41737 | 1978 ft | 159 kts | 357° |
| 2026-04-29 09:54 | 44.08667 | 47.41536 | 1981 ft | 160 kts | 357° |
| 2026-04-29 09:54 | 44.10142 | 47.41268 | 1980 ft | 162 kts | 357° |
| 2026-04-29 09:55 | 44.10883 | 47.41133 | 1980 ft | 162 kts | 357° |
| 2026-04-29 09:55 | 44.12007 | 47.40928 | 1980 ft | 163 kts | 357° |
| 2026-04-29 09:55 | 44.13134 | 47.40722 | 1980 ft | 163 kts | 356° |
| 2026-04-29 09:55 | 44.14264 | 47.40517 | 1981 ft | 163 kts | 356° |
| 2026-04-29 09:56 | 44.15386 | 47.40311 | 1975 ft | 162 kts | 356° |
| 2026-04-29 09:56 | 44.16498 | 47.40108 | 1974 ft | 160 kts | 356° |
| 2026-04-29 09:56 | 44.17597 | 47.39907 | 1975 ft | 159 kts | 356° |
| 2026-04-29 09:56 | 44.18675 | 47.39709 | 1976 ft | 158 kts | 356° |
| 2026-04-29 09:57 | 44.19765 | 47.39511 | 1977 ft | 158 kts | 356° |
| 2026-04-29 09:57 | 44.20858 | 47.39312 | 1980 ft | 159 kts | 356° |
| 2026-04-29 09:57 | 44.21957 | 47.39110 | 1980 ft | 159 kts | 356° |
| 2026-04-29 09:57 | 44.23045 | 47.38911 | 1980 ft | 159 kts | 357° |
| 2026-04-29 09:58 | 44.24142 | 47.38710 | 1980 ft | 159 kts | 357° |
| 2026-04-29 09:58 | 44.25239 | 47.38509 | 1980 ft | 159 kts | 357° |
| 2026-04-29 09:58 | 44.26346 | 47.38306 | 1979 ft | 160 kts | 357° |
| 2026-04-29 09:58 | 44.27448 | 47.38104 | 1977 ft | 159 kts | 356° |
| 2026-04-29 09:59 | 44.28533 | 47.37904 | 1978 ft | 159 kts | 357° |
| 2026-04-29 09:59 | 44.29629 | 47.37704 | 1980 ft | 159 kts | 356° |
| 2026-04-29 09:59 | 44.30725 | 47.37503 | 1980 ft | 159 kts | 357° |
| 2026-04-29 09:59 | 44.31822 | 47.37302 | 1980 ft | 159 kts | 357° |
| 2026-04-29 10:00 | 44.32924 | 47.37100 | 1986 ft | 159 kts | 357° |
| 2026-04-29 10:00 | 44.34020 | 47.36898 | 1985 ft | 159 kts | 357° |
| 2026-04-29 10:00 | 44.35117 | 47.36696 | 1985 ft | 159 kts | 357° |
| 2026-04-29 10:00 | 44.36216 | 47.36495 | 1986 ft | 159 kts | 357° |
| 2026-04-29 10:01 | 44.37318 | 47.36292 | 1986 ft | 160 kts | 357° |
| 2026-04-29 10:01 | 44.38423 | 47.36089 | 1986 ft | 160 kts | 357° |
| 2026-04-29 10:01 | 44.39526 | 47.35886 | 1985 ft | 160 kts | 357° |
| 2026-04-29 10:01 | 44.40616 | 47.35685 | 1985 ft | 160 kts | 357° |
| 2026-04-29 10:02 | 44.41720 | 47.35481 | 1985 ft | 160 kts | 357° |
| 2026-04-29 10:02 | 44.42830 | 47.35277 | 1985 ft | 160 kts | 357° |
| 2026-04-29 10:02 | 44.43939 | 47.35073 | 1985 ft | 160 kts | 357° |
| 2026-04-29 10:02 | 44.45046 | 47.34868 | 1984 ft | 160 kts | 357° |
| 2026-04-29 10:03 | 44.46149 | 47.34665 | 1986 ft | 160 kts | 357° |
| 2026-04-29 10:03 | 44.47258 | 47.34460 | 1987 ft | 161 kts | 357° |
| 2026-04-29 10:03 | 44.48368 | 47.34256 | 1987 ft | 161 kts | 357° |
| 2026-04-29 10:03 | 44.49461 | 47.34054 | 1987 ft | 160 kts | 356° |
| 2026-04-29 10:04 | 44.50567 | 47.33849 | 1986 ft | 160 kts | 357° |
| 2026-04-29 10:04 | 44.51672 | 47.33644 | 1984 ft | 159 kts | 357° |
| 2026-04-29 10:04 | 44.52765 | 47.33441 | 1983 ft | 158 kts | 357° |
| 2026-04-29 10:04 | 44.53849 | 47.33231 | 1982 ft | 157 kts | 357° |
| 2026-04-29 10:05 | 44.54929 | 47.33021 | 1982 ft | 156 kts | 357° |
| 2026-04-29 10:05 | 44.56004 | 47.32814 | 1982 ft | 156 kts | 356° |
| 2026-04-29 10:05 | 44.57081 | 47.32606 | 1982 ft | 157 kts | 357° |
| 2026-04-29 10:05 | 44.58167 | 47.32396 | 1987 ft | 158 kts | 356° |
| 2026-04-29 10:06 | 44.59249 | 47.32188 | 1988 ft | 159 kts | 356° |
| 2026-04-29 10:06 | 44.60355 | 47.31975 | 1988 ft | 160 kts | 355° |
| 2026-04-29 10:06 | 44.61463 | 47.31759 | 1987 ft | 160 kts | 356° |
| 2026-04-29 10:06 | 44.62568 | 47.31545 | 1986 ft | 160 kts | 356° |
| 2026-04-29 10:07 | 44.63673 | 47.31331 | 1982 ft | 160 kts | 356° |
| 2026-04-29 10:07 | 44.64774 | 47.31118 | 1983 ft | 159 kts | 356° |
| 2026-04-29 10:07 | 44.65856 | 47.30908 | 1985 ft | 159 kts | 356° |
| 2026-04-29 10:07 | 44.66956 | 47.30696 | 1985 ft | 159 kts | 356° |
| 2026-04-29 10:08 | 44.68057 | 47.30482 | 1988 ft | 160 kts | 356° |
| 2026-04-29 10:08 | 44.69159 | 47.30268 | 1988 ft | 160 kts | 356° |
| 2026-04-29 10:08 | 44.70263 | 47.30054 | 1987 ft | 160 kts | 356° |
| 2026-04-29 10:08 | 44.71357 | 47.29842 | 1986 ft | 160 kts | 356° |
| 2026-04-29 10:09 | 44.72461 | 47.29627 | 1989 ft | 160 kts | 356° |
| 2026-04-29 10:09 | 44.73565 | 47.29412 | 1989 ft | 160 kts | 356° |
| 2026-04-29 10:09 | 44.74667 | 47.29198 | 1989 ft | 160 kts | 356° |
| 2026-04-29 10:09 | 44.75769 | 47.28984 | 1989 ft | 160 kts | 356° |
| 2026-04-29 10:10 | 44.76870 | 47.28770 | 1989 ft | 160 kts | 356° |
| 2026-04-29 10:10 | 44.77974 | 47.28555 | 1991 ft | 160 kts | 356° |
| 2026-04-29 10:10 | 44.79080 | 47.28340 | 1991 ft | 160 kts | 356° |
| 2026-04-29 10:10 | 44.80168 | 47.28128 | 1989 ft | 159 kts | 358° |
| 2026-04-29 10:11 | 44.81270 | 47.27914 | 1992 ft | 159 kts | 356° |
| 2026-04-29 10:11 | 44.82370 | 47.27699 | 1993 ft | 159 kts | 357° |
| 2026-04-29 10:11 | 44.83471 | 47.27486 | 1992 ft | 160 kts | 356° |
| 2026-04-29 10:11 | 44.84573 | 47.27270 | 1994 ft | 160 kts | 356° |
| 2026-04-29 10:12 | 44.85675 | 47.27055 | 1995 ft | 160 kts | 356° |
| 2026-04-29 10:12 | 44.86781 | 47.26840 | 1997 ft | 161 kts | 355° |
| 2026-04-29 10:12 | 44.87892 | 47.26623 | 1998 ft | 162 kts | 356° |
| 2026-04-29 10:12 | 44.88999 | 47.26407 | 1997 ft | 162 kts | 354° |
| 2026-04-29 10:13 | 44.90118 | 47.26187 | 1995 ft | 162 kts | 357° |
| 2026-04-29 10:13 | 44.91231 | 47.25969 | 1996 ft | 161 kts | 357° |
| 2026-04-29 10:13 | 44.92347 | 47.25751 | 1998 ft | 162 kts | 358° |
| 2026-04-29 10:13 | 44.93466 | 47.25533 | 1996 ft | 162 kts | 358° |
| 2026-04-29 10:14 | 44.94563 | 47.25318 | 1993 ft | 160 kts | 356° |
| 2026-04-29 10:14 | 44.95666 | 47.25102 | 1998 ft | 160 kts | 356° |
| 2026-04-29 10:14 | 44.96765 | 47.24888 | 1997 ft | 159 kts | 354° |
| 2026-04-29 10:14 | 44.97864 | 47.24671 | 2000 ft | 159 kts | 354° |
| 2026-04-29 10:15 | 44.98966 | 47.24457 | 1998 ft | 160 kts | 355° |
| 2026-04-29 10:15 | 45.00072 | 47.24240 | 1999 ft | 161 kts | 355° |
| 2026-04-29 10:15 | 45.01190 | 47.24020 | 1999 ft | 162 kts | 356° |
| 2026-04-29 10:15 | 45.02314 | 47.23799 | 1999 ft | 163 kts | 356° |
| 2026-04-29 10:16 | 45.03439 | 47.23579 | 1999 ft | 163 kts | 356° |
| 2026-04-29 10:16 | 45.04184 | 47.23433 | 1989 ft | 162 kts | 354° |
| 2026-04-29 10:16 | 45.05659 | 47.23141 | 1992 ft | 161 kts | 355° |
| 2026-04-29 10:16 | 45.06766 | 47.22928 | 1994 ft | 161 kts | 354° |
| 2026-04-29 10:17 | 45.07873 | 47.22713 | 1995 ft | 160 kts | 355° |
| 2026-04-29 10:17 | 45.08976 | 47.22498 | 1995 ft | 159 kts | 356° |
| 2026-04-29 10:17 | 45.10074 | 47.22286 | 1994 ft | 159 kts | 355° |
| 2026-04-29 10:17 | 45.11174 | 47.22070 | 1999 ft | 160 kts | 356° |
| 2026-04-29 10:18 | 45.12287 | 47.21856 | 1995 ft | 162 kts | 357° |
| 2026-04-29 10:18 | 45.13411 | 47.21636 | 1997 ft | 163 kts | 356° |
| 2026-04-29 10:18 | 45.14521 | 47.21420 | 1991 ft | 161 kts | 354° |
| 2026-04-29 10:18 | 45.15631 | 47.21202 | 1990 ft | 159 kts | 355° |
| 2026-04-29 10:19 | 45.16727 | 47.20987 | 1996 ft | 159 kts | 355° |
| 2026-04-29 10:19 | 45.17834 | 47.20775 | 1995 ft | 161 kts | 355° |
| 2026-04-29 10:19 | 45.18951 | 47.20556 | 1996 ft | 162 kts | 356° |
| 2026-04-29 10:19 | 45.20073 | 47.20337 | 1996 ft | 162 kts | 355° |
| 2026-04-29 10:20 | 45.21181 | 47.20119 | 1997 ft | 162 kts | 356° |
| 2026-04-29 10:20 | 45.22308 | 47.19900 | 1998 ft | 163 kts | 356° |
| 2026-04-29 10:20 | 45.23433 | 47.19681 | 1999 ft | 164 kts | 356° |
| 2026-04-29 10:20 | 45.24566 | 47.19459 | 1999 ft | 165 kts | 356° |
| 2026-04-29 10:21 | 45.25703 | 47.19236 | 1998 ft | 165 kts | 354° |
| 2026-04-29 10:21 | 45.26839 | 47.19013 | 1996 ft | 164 kts | 354° |
| 2026-04-29 10:21 | 45.27971 | 47.18791 | 1997 ft | 164 kts | 355° |
| 2026-04-29 10:21 | 45.29089 | 47.18572 | 1999 ft | 164 kts | 356° |
| 2026-04-29 10:22 | 45.30227 | 47.18350 | 2000 ft | 165 kts | 356° |
| 2026-04-29 10:22 | 45.31375 | 47.18125 | 2002 ft | 167 kts | 355° |
| 2026-04-29 10:22 | 45.32525 | 47.17901 | 1998 ft | 166 kts | 356° |
| 2026-04-29 10:22 | 45.33666 | 47.17675 | 1999 ft | 164 kts | 355° |
| 2026-04-29 10:23 | 45.34800 | 47.17451 | 1996 ft | 164 kts | 356° |
| 2026-04-29 10:23 | 45.35929 | 47.17231 | 1995 ft | 163 kts | 355° |
| 2026-04-29 10:23 | 45.37052 | 47.17010 | 1995 ft | 163 kts | 355° |
| 2026-04-29 10:23 | 45.38174 | 47.16789 | 1994 ft | 162 kts | 355° |
| 2026-04-29 10:24 | 45.39286 | 47.16571 | 1995 ft | 161 kts | 354° |
| 2026-04-29 10:24 | 45.40387 | 47.16355 | 1996 ft | 162 kts | 356° |
| 2026-04-29 10:24 | 45.41508 | 47.16134 | 1995 ft | 162 kts | 356° |
| 2026-04-29 10:24 | 45.42627 | 47.15914 | 1995 ft | 162 kts | 356° |
| 2026-04-29 10:25 | 45.43746 | 47.15694 | 1996 ft | 162 kts | 355° |
| 2026-04-29 10:25 | 45.44858 | 47.15474 | 1996 ft | 161 kts | 356° |
| 2026-04-29 10:25 | 45.45969 | 47.15256 | 1995 ft | 161 kts | 355° |
| 2026-04-29 10:25 | 45.47084 | 47.15036 | 1996 ft | 162 kts | 355° |
| 2026-04-29 10:26 | 45.48188 | 47.14817 | 1996 ft | 162 kts | 355° |
| 2026-04-29 10:26 | 45.49310 | 47.14597 | 1997 ft | 163 kts | 355° |
| 2026-04-29 10:26 | 45.50430 | 47.14375 | 1998 ft | 162 kts | 356° |
| 2026-04-29 10:26 | 45.51547 | 47.14155 | 2001 ft | 162 kts | 356° |
| 2026-04-29 10:27 | 45.53782 | 47.13714 | 2000 ft | 163 kts | 355° |
| 2026-04-29 10:27 | 45.54908 | 47.13492 | 1997 ft | 163 kts | 355° |
| 2026-04-29 10:27 | 45.56030 | 47.13268 | 1996 ft | 162 kts | 354° |
| 2026-04-29 10:28 | 45.57148 | 47.13047 | 1999 ft | 161 kts | 355° |
| 2026-04-29 10:28 | 45.58243 | 47.12826 | 2002 ft | 160 kts | 355° |
| 2026-04-29 10:28 | 45.59347 | 47.12610 | 1998 ft | 160 kts | 354° |
| 2026-04-29 10:28 | 45.60450 | 47.12393 | 2000 ft | 160 kts | 356° |
| 2026-04-29 10:29 | 45.61561 | 47.12175 | 2001 ft | 162 kts | 356° |
| 2026-04-29 10:29 | 45.62689 | 47.11952 | 2002 ft | 164 kts | 354° |
| 2026-04-29 10:29 | 45.63825 | 47.11725 | 1999 ft | 164 kts | 355° |
| 2026-04-29 10:29 | 45.64951 | 47.11501 | 1998 ft | 163 kts | 354° |
| 2026-04-29 10:30 | 45.66073 | 47.11278 | 1995 ft | 163 kts | 355° |
| 2026-04-29 10:30 | 45.67180 | 47.11058 | 1994 ft | 162 kts | 356° |
| 2026-04-29 10:30 | 45.68297 | 47.10840 | 1995 ft | 162 kts | 355° |
| 2026-04-29 10:30 | 45.69411 | 47.10623 | 1991 ft | 161 kts | 354° |
| 2026-04-29 10:31 | 45.70517 | 47.10403 | 1998 ft | 160 kts | 355° |
| 2026-04-29 10:31 | 45.71616 | 47.10190 | 1996 ft | 158 kts | 354° |
| 2026-04-29 10:31 | 45.72704 | 47.09975 | 1995 ft | 156 kts | 356° |
| 2026-04-29 10:31 | 45.73781 | 47.09762 | 1994 ft | 155 kts | 356° |
| 2026-04-29 10:32 | 45.74848 | 47.09553 | 1994 ft | 155 kts | 355° |
| 2026-04-29 10:32 | 45.75902 | 47.09345 | 1996 ft | 155 kts | 355° |
| 2026-04-29 10:32 | 45.76974 | 47.09136 | 1997 ft | 156 kts | 356° |
| 2026-04-29 10:32 | 45.78060 | 47.08924 | 1995 ft | 157 kts | 356° |
| 2026-04-29 10:33 | 45.79140 | 47.08709 | 1995 ft | 156 kts | 355° |
| 2026-04-29 10:33 | 45.80222 | 47.08495 | 1999 ft | 157 kts | 355° |
| 2026-04-29 10:33 | 45.81313 | 47.08282 | 2000 ft | 159 kts | 355° |
| 2026-04-29 10:33 | 45.82395 | 47.08068 | 2001 ft | 159 kts | 356° |
| 2026-04-29 10:34 | 45.83497 | 47.07850 | 2002 ft | 160 kts | 356° |
| 2026-04-29 10:34 | 45.84606 | 47.07632 | 2003 ft | 161 kts | 355° |
| 2026-04-29 10:34 | 45.85724 | 47.07411 | 2004 ft | 163 kts | 356° |
| 2026-04-29 10:34 | 45.86851 | 47.07189 | 2001 ft | 162 kts | 355° |
| 2026-04-29 10:35 | 45.87951 | 47.06971 | 2001 ft | 161 kts | 355° |
| 2026-04-29 10:35 | 45.89059 | 47.06752 | 2001 ft | 160 kts | 355° |
| 2026-04-29 10:35 | 45.90171 | 47.06532 | 2004 ft | 162 kts | 355° |
| 2026-04-29 10:35 | 45.91292 | 47.06312 | 1999 ft | 162 kts | 354° |
| 2026-04-29 10:36 | 45.92403 | 47.06091 | 1998 ft | 160 kts | 354° |
| 2026-04-29 10:36 | 45.93502 | 47.05873 | 1997 ft | 159 kts | 355° |
| 2026-04-29 10:36 | 45.94597 | 47.05655 | 2000 ft | 159 kts | 354° |
| 2026-04-29 10:36 | 45.95328 | 47.05512 | 2000 ft | 160 kts | 354° |
| 2026-04-29 10:37 | 45.96794 | 47.05221 | 1999 ft | 161 kts | 355° |
| 2026-04-29 10:37 | 45.97902 | 47.05002 | 2001 ft | 160 kts | 354° |
| 2026-04-29 10:37 | 45.99004 | 47.04782 | 1999 ft | 159 kts | 354° |
| 2026-04-29 10:37 | 46.00098 | 47.04566 | 1997 ft | 158 kts | 354° |
| 2026-04-29 10:38 | 46.00833 | 47.04418 | 2000 ft | 158 kts | 354° |
| 2026-04-29 10:38 | 46.01914 | 47.04205 | 1999 ft | 158 kts | 353° |
| 2026-04-29 10:38 | 46.03002 | 47.03989 | 1996 ft | 157 kts | 353° |
| 2026-04-29 10:38 | 46.04081 | 47.03773 | 1999 ft | 155 kts | 354° |
| 2026-04-29 10:39 | 46.05158 | 47.03561 | 2003 ft | 157 kts | 353° |
| 2026-04-29 10:39 | 46.06245 | 47.03344 | 2004 ft | 158 kts | 354° |
| 2026-04-29 10:39 | 46.07337 | 47.03127 | 2002 ft | 158 kts | 353° |
| 2026-04-29 10:39 | 46.08420 | 47.02911 | 2000 ft | 156 kts | 354° |
| 2026-04-29 10:40 | 46.09484 | 47.02698 | 2005 ft | 156 kts | 355° |
| 2026-04-29 10:40 | 46.10567 | 47.02484 | 2006 ft | 158 kts | 354° |
| 2026-04-29 10:40 | 46.11657 | 47.02267 | 2003 ft | 157 kts | 354° |
| 2026-04-29 10:40 | 46.12740 | 47.02050 | 2007 ft | 157 kts | 355° |
| 2026-04-29 10:41 | 46.13831 | 47.01833 | 2007 ft | 159 kts | 354° |
| 2026-04-29 10:41 | 46.14927 | 47.01615 | 2005 ft | 158 kts | 354° |
| 2026-04-29 10:41 | 46.16013 | 47.01397 | 2007 ft | 158 kts | 354° |
| 2026-04-29 10:41 | 46.17103 | 47.01180 | 2006 ft | 158 kts | 353° |
| 2026-04-29 10:42 | 46.18179 | 47.00966 | 2004 ft | 158 kts | 353° |
| 2026-04-29 10:42 | 46.19264 | 47.00747 | 2004 ft | 157 kts | 354° |
| 2026-04-29 10:42 | 46.20347 | 47.00540 | 2006 ft | 157 kts | 358° |
| 2026-04-29 10:42 | 46.21341 | 47.01061 | 2000 ft | 155 kts | 45° |
| 2026-04-29 10:43 | 46.21740 | 47.02477 | 1999 ft | 156 kts | 87° |
| 2026-04-29 10:43 | 46.21681 | 47.04046 | 2005 ft | 156 kts | 88° |
| 2026-04-29 10:43 | 46.21737 | 47.05619 | 2007 ft | 157 kts | 83° |
| 2026-04-29 10:43 | 46.21841 | 47.07187 | 2009 ft | 157 kts | 82° |
| 2026-04-29 10:44 | 46.21955 | 47.08736 | 2004 ft | 157 kts | 83° |
| 2026-04-29 10:44 | 46.22071 | 47.10307 | 2005 ft | 157 kts | 83° |
| 2026-04-29 10:44 | 46.22186 | 47.11880 | 2008 ft | 158 kts | 82° |
| 2026-04-29 10:44 | 46.22301 | 47.13459 | 2006 ft | 158 kts | 83° |
| 2026-04-29 10:45 | 46.22416 | 47.15038 | 2008 ft | 157 kts | 83° |
| 2026-04-29 10:45 | 46.22530 | 47.16595 | 2009 ft | 158 kts | 83° |
| 2026-04-29 10:45 | 46.22646 | 47.18180 | 2007 ft | 159 kts | 83° |
| 2026-04-29 10:45 | 46.22761 | 47.19770 | 2008 ft | 159 kts | 83° |
| 2026-04-29 10:46 | 46.22875 | 47.21354 | 2003 ft | 158 kts | 83° |
| 2026-04-29 10:46 | 46.22990 | 47.22931 | 2003 ft | 157 kts | 83° |
| 2026-04-29 10:46 | 46.23101 | 47.24481 | 2005 ft | 157 kts | 82° |
| 2026-04-29 10:46 | 46.23215 | 47.26053 | 2005 ft | 157 kts | 83° |
| 2026-04-29 10:47 | 46.23328 | 47.27631 | 2008 ft | 158 kts | 82° |
| 2026-04-29 10:47 | 46.23442 | 47.29216 | 2008 ft | 159 kts | 83° |
| 2026-04-29 10:47 | 46.23555 | 47.30803 | 2007 ft | 159 kts | 83° |
| 2026-04-29 10:47 | 46.23669 | 47.32389 | 2005 ft | 158 kts | 83° |
| 2026-04-29 10:48 | 46.23781 | 47.33957 | 2005 ft | 159 kts | 83° |
| 2026-04-29 10:48 | 46.23894 | 47.35543 | 2002 ft | 158 kts | 83° |
| 2026-04-29 10:48 | 46.24005 | 47.37118 | 2004 ft | 158 kts | 83° |
| 2026-04-29 10:48 | 46.24118 | 47.38700 | 2006 ft | 157 kts | 83° |
| 2026-04-29 10:49 | 46.24230 | 47.40277 | 2004 ft | 157 kts | 83° |
| 2026-04-29 10:49 | 46.24341 | 47.41849 | 2005 ft | 157 kts | 83° |
| 2026-04-29 10:49 | 46.24450 | 47.43402 | 2007 ft | 158 kts | 83° |
| 2026-04-29 10:49 | 46.24561 | 47.44987 | 2008 ft | 158 kts | 83° |
| 2026-04-29 10:50 | 46.24672 | 47.46567 | 2007 ft | 157 kts | 83° |
| 2026-04-29 10:50 | 46.24783 | 47.48143 | 2005 ft | 157 kts | 83° |
| 2026-04-29 10:50 | 46.24893 | 47.49718 | 2005 ft | 158 kts | 83° |
| 2026-04-29 10:50 | 46.25004 | 47.51299 | 2002 ft | 158 kts | 83° |
| 2026-04-29 10:51 | 46.25114 | 47.52882 | 2006 ft | 158 kts | 83° |
| 2026-04-29 10:51 | 46.25222 | 47.54442 | 2004 ft | 159 kts | 82° |
| 2026-04-29 10:51 | 46.25332 | 47.56030 | 2006 ft | 159 kts | 83° |
| 2026-04-29 10:51 | 46.25442 | 47.57615 | 2005 ft | 158 kts | 83° |
| 2026-04-29 10:52 | 46.25552 | 47.59203 | 2010 ft | 159 kts | 82° |
| 2026-04-29 10:52 | 46.25661 | 47.60790 | 2004 ft | 158 kts | 83° |
| 2026-04-29 10:52 | 46.25770 | 47.62372 | 2006 ft | 157 kts | 82° |
| 2026-04-29 10:52 | 46.25877 | 47.63937 | 2006 ft | 156 kts | 83° |
| 2026-04-29 10:53 | 46.25983 | 47.65482 | 2004 ft | 156 kts | 83° |
| 2026-04-29 10:53 | 46.26090 | 47.67049 | 2006 ft | 156 kts | 82° |
| 2026-04-29 10:53 | 46.26197 | 47.68612 | 2007 ft | 157 kts | 82° |
| 2026-04-29 10:53 | 46.26304 | 47.70181 | 2006 ft | 157 kts | 82° |
| 2026-04-29 10:54 | 46.26411 | 47.71757 | 2006 ft | 158 kts | 83° |
| 2026-04-29 10:54 | 46.26517 | 47.73321 | 2007 ft | 158 kts | 83° |
| 2026-04-29 10:54 | 46.26625 | 47.74906 | 2009 ft | 159 kts | 83° |
| 2026-04-29 10:54 | 46.26732 | 47.76493 | 2010 ft | 159 kts | 83° |
| 2026-04-29 10:55 | 46.26838 | 47.78078 | 2008 ft | 157 kts | 83° |
| 2026-04-29 10:55 | 46.26944 | 47.79647 | 2007 ft | 157 kts | 83° |
| 2026-04-29 10:55 | 46.27049 | 47.81217 | 2007 ft | 157 kts | 83° |
| 2026-04-29 10:55 | 46.27154 | 47.82766 | 2016 ft | 157 kts | 82° |
| 2026-04-29 10:56 | 46.27259 | 47.84345 | 2020 ft | 157 kts | 82° |
| 2026-04-29 10:56 | 46.27363 | 47.85900 | 2023 ft | 157 kts | 82° |
| 2026-04-29 10:56 | 46.27468 | 47.87477 | 2020 ft | 158 kts | 83° |
| 2026-04-29 10:56 | 46.27573 | 47.89060 | 2021 ft | 158 kts | 83° |
| 2026-04-29 10:57 | 46.27677 | 47.90639 | 2022 ft | 158 kts | 83° |
| 2026-04-29 10:57 | 46.27782 | 47.92224 | 2020 ft | 158 kts | 83° |
| 2026-04-29 10:57 | 46.27886 | 47.93806 | 2023 ft | 158 kts | 83° |
| 2026-04-29 10:57 | 46.27991 | 47.95384 | 2018 ft | 158 kts | 83° |
| 2026-04-29 10:58 | 46.28056 | 47.96369 | 2021 ft | 158 kts | 83° |
| 2026-04-29 10:58 | 46.28129 | 47.97506 | 1907 ft | 158 kts | 84° |
| 2026-04-29 10:58 | 46.28231 | 47.98988 | 1961 ft | 126 kts | 83° |
| 2026-04-29 10:58 | 46.28304 | 48.00033 | 1986 ft | 87 kts | 76° |
| 2026-04-29 10:59 | 46.28527 | 48.00676 | 1623 ft | 91 kts | 6° |
| 2026-04-29 10:59 | 46.29110 | 48.00323 | 1361 ft | 94 kts | 331° |
| 2026-04-29 10:59 | 46.29645 | 47.99782 | 1171 ft | 88 kts | 327° |
| 2026-04-29 10:59 | 46.30119 | 47.99150 | 919 ft | 95 kts | 302° |
| 2026-04-29 11:00 | 46.30118 | 47.98232 | 686 ft | 94 kts | 239° |
| 2026-04-29 11:00 | 46.29699 | 47.97568 | 603 ft | 84 kts | 217° |
| 2026-04-29 11:00 | 46.29157 | 47.97302 | 415 ft | 84 kts | 171° |
| 2026-04-29 11:00 | 46.28672 | 47.97665 | 249 ft | 79 kts | 122° |
| 2026-04-29 11:01 | 46.28510 | 47.98419 | 36 ft | 80 kts | 96° |
| 2026-04-29 11:01 | 46.28448 | 47.99197 | -74 ft | 73 kts | 96° |
| 2026-04-29 11:01 | 46.28406 | 47.99719 | -79 ft | 32 kts | 95° |
| 2026-04-29 11:01 | 46.28384 | 47.99991 | -77 ft | 23 kts | 94° |
| 2026-04-29 11:02 | 46.28447 | 48.00058 | -76 ft | 12 kts | 3° |